createdAt,value
2018-02-22T00:01:01.961Z,99447.16
2018-02-22T00:03:33.400Z,99439.98
2018-02-22T00:06:05.250Z,99440.83
2018-02-22T00:08:36.107Z,99437.73
2018-02-22T00:11:07.290Z,99432.08
2018-02-22T00:13:38.849Z,99433.73
2018-02-22T00:16:10.093Z,99421.70
2018-02-22T00:18:41.197Z,99419.39
2018-02-22T00:21:11.970Z,99419.20
2018-02-22T00:23:43.634Z,99416.28
2018-02-22T00:26:15.255Z,99414.11
2018-02-22T00:28:46.590Z,99424.20
2018-02-22T00:31:18.217Z,99420.91
2018-02-22T00:33:49.686Z,99415.38
2018-02-22T00:36:21.144Z,99415.81
2018-02-22T00:38:52.502Z,99419.97
2018-02-22T00:41:23.385Z,99421.05
2018-02-22T00:43:55.037Z,99420.02
2018-02-22T00:46:26.368Z,99417.13
2018-02-22T00:48:58.751Z,99411.85
2018-02-22T00:51:30.984Z,99411.41
2018-02-22T00:54:01.822Z,99407.69
2018-02-22T00:56:33.404Z,99404.31
2018-02-22T00:59:04.748Z,99401.90
2018-02-22T01:01:36.760Z,99406.30
2018-02-22T01:04:08.279Z,99399.09
2018-02-22T01:06:39.786Z,99396.05
2018-02-22T01:09:11.153Z,99392.60
2018-02-22T01:11:42.753Z,99396.95
2018-02-22T01:14:13.600Z,99388.42
2018-02-22T01:16:45.401Z,99397.56
2018-02-22T01:19:17.171Z,99386.30
2018-02-22T01:21:48.459Z,99393.39
2018-02-22T01:24:19.773Z,99387.41
2018-02-22T01:26:50.840Z,99389.51
2018-02-22T01:29:22.565Z,99390.38
2018-02-22T01:31:54.045Z,99390.90
2018-02-22T01:34:25.774Z,99394.98
2018-02-22T01:36:58.892Z,99396.20
2018-02-22T01:39:30.113Z,99395.42
2018-02-22T01:42:01.735Z,99393.78
2018-02-22T01:44:32.912Z,99390.44
2018-02-22T01:47:05.156Z,99390.47
2018-02-22T01:49:36.804Z,99390.58
2018-02-22T01:52:08.631Z,99398.02
2018-02-22T01:54:40.260Z,99391.92
2018-02-22T01:57:11.712Z,99390.44
2018-02-22T01:59:43.251Z,99389.30
2018-02-22T02:02:15.528Z,99387.19
2018-02-22T02:04:52.955Z,99386.86
2018-02-22T02:07:33.043Z,99387.94
2018-02-22T02:10:05.548Z,99388.52
2018-02-22T02:12:37.356Z,99383.95
2018-02-22T02:15:09.525Z,99395.30
2018-02-22T02:17:41.352Z,99389.02
2018-02-22T02:20:12.908Z,99390.08
2018-02-22T02:22:44.760Z,99387.46
2018-02-22T02:25:17.192Z,99385.89
2018-02-22T02:27:52.164Z,99385.51
2018-02-22T02:30:23.661Z,99378.91
2018-02-22T02:32:55.606Z,99375.55
2018-02-22T02:35:27.557Z,99368.91
2018-02-22T02:38:00.260Z,99368.83
2018-02-22T02:40:31.933Z,99371.27
2018-02-22T02:43:03.997Z,99376.68
2018-02-22T02:45:35.610Z,99371.41
2018-02-22T02:48:06.977Z,99368.73
2018-02-22T02:50:38.325Z,99369.38
2018-02-22T02:53:09.536Z,99368.65
2018-02-22T02:55:40.961Z,99367.47
2018-02-22T02:58:12.667Z,99373.80
2018-02-22T03:00:49.695Z,99373.16
2018-02-22T03:03:27.530Z,99375.70
2018-02-22T03:06:04.535Z,99369.16
2018-02-22T03:08:35.773Z,99372.88
2018-02-22T03:11:07.917Z,99374.22
2018-02-22T03:13:40.193Z,99373.77
2018-02-22T03:16:11.875Z,99372.51
2018-02-22T03:18:43.057Z,99378.86
2018-02-22T03:21:14.485Z,99371.28
2018-02-22T03:23:46.225Z,99377.55
2018-02-22T03:26:17.910Z,99370.48
2018-02-22T03:28:49.410Z,99367.91
2018-02-22T03:31:21.065Z,99371.58
2018-02-22T03:33:52.493Z,99365.69
2018-02-22T03:36:24.300Z,99368.05
2018-02-22T03:38:57.218Z,99361.06
2018-02-22T03:41:28.759Z,99358.72
2018-02-22T03:44:00.208Z,99361.28
2018-02-22T03:46:31.728Z,99367.58
2018-02-22T03:49:02.906Z,99362.27
2018-02-22T03:51:34.733Z,99365.06
2018-02-22T03:54:06.846Z,99368.59
2018-02-22T03:56:38.303Z,99361.78
2018-02-22T03:59:09.892Z,99369.12
2018-02-22T04:01:41.800Z,99366.88
2018-02-22T04:04:13.251Z,99371.52
2018-02-22T04:06:44.681Z,99371.30
2018-02-22T04:09:16.377Z,99371.91
2018-02-22T04:11:47.465Z,99381.81
2018-02-22T04:14:19.217Z,99381.17
2018-02-22T04:16:50.308Z,99381.41
2018-02-22T04:19:21.784Z,99379.47
2018-02-22T04:21:53.320Z,99372.36
2018-02-22T04:24:25.366Z,99378.30
2018-02-22T04:26:57.400Z,99381.52
2018-02-22T04:29:29.141Z,99383.44
2018-02-22T04:32:02.173Z,99377.34
2018-02-22T04:34:33.726Z,99378.17
2018-02-22T04:37:05.455Z,99383.50
2018-02-22T04:39:36.920Z,99383.30
2018-02-22T04:42:08.682Z,99379.97
2018-02-22T04:44:40.406Z,99381.02
2018-02-22T04:47:12.373Z,99386.45
2018-02-22T04:49:44.325Z,99391.05
2018-02-22T04:52:16.346Z,99385.20
2018-02-22T04:54:48.023Z,99385.77
2018-02-22T04:57:19.816Z,99385.25
2018-02-22T04:59:51.814Z,99381.31
2018-02-22T05:02:23.381Z,99378.73
2018-02-22T05:04:56.563Z,99376.41
2018-02-22T05:07:28.090Z,99375.86
2018-02-22T05:10:00.274Z,99377.98
2018-02-22T05:12:32.358Z,99372.49
2018-02-22T05:15:03.682Z,99380.27
2018-02-22T05:17:35.773Z,99378.34
2018-02-22T05:20:06.917Z,99378.06
2018-02-22T05:22:38.634Z,99379.63
2018-02-22T05:25:10.197Z,99382.21
2018-02-22T05:27:41.630Z,99380.66
2018-02-22T05:30:12.778Z,99382.31
2018-02-22T05:32:44.544Z,99377.69
2018-02-22T05:35:16.674Z,99378.97
2018-02-22T05:37:48.790Z,99372.10
2018-02-22T05:40:19.975Z,99378.75
2018-02-22T05:42:51.585Z,99379.59
2018-02-22T05:45:22.790Z,99381.86
2018-02-22T05:47:53.945Z,99381.03
2018-02-22T05:50:25.546Z,99380.70
2018-02-22T05:53:01.624Z,99377.73
2018-02-22T05:55:33.037Z,99381.68
2018-02-22T05:58:04.694Z,99390.50
2018-02-22T06:00:36.645Z,99393.25
2018-02-22T06:03:09.101Z,99390.89
2018-02-22T06:05:40.516Z,99397.71
2018-02-22T06:08:13.841Z,99396.14
2018-02-22T06:10:47.638Z,99393.30
2018-02-22T06:13:18.470Z,99400.84
2018-02-22T06:15:49.994Z,99405.27
2018-02-22T06:18:21.176Z,99398.91
2018-02-22T06:20:52.077Z,99398.85
2018-02-22T06:23:24.999Z,99403.49
2018-02-22T06:25:56.445Z,99405.28
2018-02-22T06:28:28.036Z,99409.51
2018-02-22T06:31:00.344Z,99410.61
2018-02-22T06:33:35.043Z,99407.18
2018-02-22T06:36:07.894Z,99409.62
2018-02-22T06:38:39.550Z,99407.18
2018-02-22T06:41:10.821Z,99414.29
2018-02-22T06:43:43.385Z,99414.91
2018-02-22T06:46:14.895Z,99415.88
2018-02-22T06:48:45.833Z,99416.04
2018-02-22T06:51:17.724Z,99417.84
2018-02-22T06:53:48.837Z,99419.16
2018-02-22T06:56:19.649Z,99418.52
2018-02-22T06:58:50.525Z,99420.82
2018-02-22T07:01:22.025Z,99424.58
2018-02-22T07:03:53.013Z,99423.48
2018-02-22T07:06:24.152Z,99426.50
2018-02-22T07:08:55.105Z,99430.77
2018-02-22T07:11:25.858Z,99428.55
2018-02-22T07:14:00.137Z,99428.34
2018-02-22T07:16:31.065Z,99424.05
2018-02-22T07:19:02.142Z,99431.27
2018-02-22T07:21:33.309Z,99433.27
2018-02-22T07:24:04.295Z,99436.81
2018-02-22T07:26:35.373Z,99423.69
2018-02-22T07:29:06.389Z,99428.62
2018-02-22T07:31:37.545Z,99426.59
2018-02-22T07:34:08.470Z,99425.89
2018-02-22T07:36:40.320Z,99432.86
2018-02-22T07:39:12.133Z,99426.95
2018-02-22T07:41:43.773Z,99424.38
2018-02-22T07:44:14.978Z,99429.09
2018-02-22T07:46:46.146Z,99425.53
2018-02-22T07:49:17.472Z,99428.08
2018-02-22T07:51:48.713Z,99440.10
2018-02-22T07:54:20.201Z,99434.48
2018-02-22T07:56:51.029Z,99433.30
2018-02-22T07:59:22.787Z,99434.48
2018-02-22T08:01:54.217Z,99437.31
2018-02-22T08:04:25.095Z,99429.99
2018-02-22T08:06:56.800Z,99438.89
2018-02-22T08:09:27.713Z,99437.59
2018-02-22T08:11:58.683Z,99440.48
2018-02-22T08:14:29.573Z,99441.33
2018-02-22T08:17:02.398Z,99442.94
2018-02-22T08:19:33.942Z,99435.73
2018-02-22T08:22:04.790Z,99444.78
2018-02-22T08:24:35.654Z,99435.63
2018-02-22T08:27:07.410Z,99437.03
2018-02-22T08:29:39.304Z,99431.88
2018-02-22T08:32:10.259Z,99440.42
2018-02-22T08:34:41.397Z,99436.03
2018-02-22T08:37:12.820Z,99445.23
2018-02-22T08:39:44.243Z,99438.38
2018-02-22T08:42:15.509Z,99438.56
2018-02-22T08:44:47.425Z,99426.47
2018-02-22T08:47:19.053Z,99429.08
2018-02-22T08:49:49.954Z,99430.09
2018-02-22T08:52:20.781Z,99428.43
2018-02-22T08:54:51.854Z,99428.96
2018-02-22T08:57:23.519Z,99429.63
2018-02-22T08:59:54.530Z,99421.78
2018-02-22T09:02:25.401Z,99417.44
2018-02-22T09:04:57.843Z,99419.20
2018-02-22T09:07:28.669Z,99431.65
2018-02-22T09:09:59.509Z,99420.52
2018-02-22T09:12:30.805Z,99419.16
2018-02-22T09:15:01.844Z,99416.02
2018-02-22T09:17:32.655Z,99413.66
2018-02-22T09:20:04.245Z,99418.53
2018-02-22T09:22:35.055Z,99410.80
2018-02-22T09:25:06.383Z,99415.93
2018-02-22T09:27:37.648Z,99409.73
2018-02-22T09:30:09.264Z,99412.36
2018-02-22T09:32:40.432Z,99408.54
2018-02-22T09:35:11.194Z,99411.74
2018-02-22T09:37:42.842Z,99415.77
2018-02-22T09:40:14.437Z,99418.25
2018-02-22T09:42:45.245Z,99419.02
2018-02-22T09:45:16.141Z,99420.72
2018-02-22T09:47:47.299Z,99424.16
2018-02-22T09:50:19.037Z,99423.31
2018-02-22T09:52:50.538Z,99415.39
2018-02-22T09:55:21.421Z,99423.71
2018-02-22T09:57:52.289Z,99422.61
2018-02-22T10:00:23.265Z,99422.52
2018-02-22T10:02:54.064Z,99425.09
2018-02-22T10:05:24.978Z,99428.89
2018-02-22T10:07:57.389Z,99417.23
2018-02-22T10:10:28.318Z,99421.07
2018-02-22T10:13:00.112Z,99426.48
2018-02-22T10:15:31.664Z,99423.75
2018-02-22T10:18:03.074Z,99413.95
2018-02-22T10:20:35.022Z,99423.77
2018-02-22T10:23:05.937Z,99422.75
2018-02-22T10:25:37.546Z,99428.75
2018-02-22T10:28:08.707Z,99426.42
2018-02-22T10:30:39.529Z,99417.50
2018-02-22T10:33:10.384Z,99411.05
2018-02-22T10:35:41.462Z,99415.85
2018-02-22T10:38:12.249Z,99416.69
2018-02-22T10:40:43.586Z,99412.46
2018-02-22T10:43:14.874Z,99408.92
2018-02-22T10:45:45.792Z,99412.78
2018-02-22T10:48:16.942Z,99409.05
2018-02-22T10:50:49.214Z,99406.14
2018-02-22T10:53:20.553Z,99409.45
2018-02-22T10:55:51.604Z,99406.47
2018-02-22T10:58:23.186Z,99408.08
2018-02-22T11:00:58.833Z,99392.06
2018-02-22T11:03:29.984Z,99394.78
2018-02-22T11:06:03.118Z,99385.67
2018-02-22T11:08:33.910Z,99382.89
2018-02-22T11:11:04.913Z,99390.41
2018-02-22T11:13:35.654Z,99394.92
2018-02-22T11:16:06.892Z,99393.02
2018-02-22T11:18:38.266Z,99400.50
2018-02-22T11:21:09.600Z,99400.33
2018-02-22T11:23:41.027Z,99391.66
2018-02-22T11:26:11.862Z,99399.66
2018-02-22T11:28:43.298Z,99399.31
2018-02-22T11:31:14.321Z,99395.61
2018-02-22T11:33:45.090Z,99398.49
2018-02-22T11:36:16.250Z,99400.73
2018-02-22T11:38:47.621Z,99399.18
2018-02-22T11:41:19.037Z,99394.31
2018-02-22T11:43:49.877Z,99393.58
2018-02-22T11:46:21.044Z,99400.87
2018-02-22T11:48:53.005Z,99382.05
2018-02-22T11:51:24.274Z,99385.36
2018-02-22T11:53:55.466Z,99383.72
2018-02-22T11:56:30.202Z,99381.10
2018-02-22T11:59:01.102Z,99381.91
2018-02-22T12:01:32.008Z,99384.30
2018-02-22T12:04:02.878Z,99392.17
2018-02-22T12:06:34.025Z,99379.55
2018-02-22T12:09:11.347Z,99388.48
2018-02-22T12:11:42.846Z,99387.35
2018-02-22T12:14:14.091Z,99387.05
2018-02-22T12:16:44.922Z,99377.22
2018-02-22T12:19:15.748Z,99372.77
2018-02-22T12:21:46.910Z,99374.31
2018-02-22T12:24:18.262Z,99366.48
2018-02-22T12:26:49.210Z,99369.45
2018-02-22T12:29:20.366Z,99362.13
2018-02-22T12:31:52.188Z,99361.44
2018-02-22T12:34:23.029Z,99372.59
2018-02-22T12:36:55.137Z,99361.55
2018-02-22T12:39:26.009Z,99361.90
2018-02-22T12:41:57.305Z,99364.53
2018-02-22T12:44:28.325Z,99367.91
2018-02-22T12:46:59.106Z,99352.09
2018-02-22T12:49:30.474Z,99353.52
2018-02-22T12:52:01.386Z,99355.41
2018-02-22T12:54:32.225Z,99345.40
2018-02-22T12:57:03.338Z,99341.20
2018-02-22T12:59:34.131Z,99352.31
2018-02-22T13:02:04.945Z,99345.70
2018-02-22T13:04:37.771Z,99339.80
2018-02-22T13:07:08.730Z,99335.12
2018-02-22T13:09:39.743Z,99335.46
2018-02-22T13:12:10.753Z,99343.57
2018-02-22T13:14:41.530Z,99333.41
2018-02-22T13:17:12.673Z,99331.26
2018-02-22T13:19:43.423Z,99328.20
2018-02-22T13:22:14.445Z,99328.50
2018-02-22T13:24:46.444Z,99327.33
2018-02-22T13:27:17.243Z,99320.95
2018-02-22T13:29:48.188Z,99329.36
2018-02-22T13:32:19.969Z,99322.67
2018-02-22T13:34:50.877Z,99325.08
2018-02-22T13:37:30.346Z,99321.77
2018-02-22T13:40:03.126Z,99313.52
2018-02-22T13:42:34.518Z,99308.45
2018-02-22T13:45:40.441Z,99304.70
2018-02-22T13:48:11.832Z,99303.19
2018-02-22T13:50:53.161Z,99302.34
2018-02-22T13:53:25.254Z,99297.56
2018-02-22T13:55:56.166Z,99302.86
2018-02-22T13:58:26.990Z,99304.19
2018-02-22T14:01:07.985Z,99298.70
2018-02-22T14:03:38.845Z,99293.23
2018-02-22T14:06:09.990Z,99296.52
2018-02-22T14:08:47.695Z,99298.66
2018-02-22T14:11:18.860Z,99299.53
2018-02-22T14:13:49.773Z,99293.41
2018-02-22T14:16:20.658Z,99277.05
2018-02-22T14:18:51.793Z,99281.31
2018-02-22T14:21:22.678Z,99280.78
2018-02-22T14:23:53.533Z,99273.14
2018-02-22T14:26:25.718Z,99269.36
2018-02-22T14:28:56.605Z,99272.83
2018-02-22T14:31:27.871Z,99277.05
2018-02-22T14:33:58.692Z,99275.52
2018-02-22T14:36:31.122Z,99279.30
2018-02-22T14:39:02.232Z,99278.48
2018-02-22T14:41:33.273Z,99270.05
2018-02-22T14:44:04.138Z,99272.05
2018-02-22T14:46:35.353Z,99270.23
2018-02-22T14:49:06.750Z,99265.85
2018-02-22T14:51:37.533Z,99266.63
2018-02-22T14:54:08.589Z,99264.83
2018-02-22T14:56:39.813Z,99265.71
2018-02-22T14:59:11.397Z,99260.79
2018-02-22T15:01:43.069Z,99274.63
2018-02-22T15:04:14.132Z,99268.79
2018-02-22T15:06:45.321Z,99265.22
2018-02-22T15:09:16.212Z,99263.20
2018-02-22T15:11:47.181Z,99266.98
2018-02-22T15:14:18.292Z,99257.56
2018-02-22T15:16:50.557Z,99265.00
2018-02-22T15:19:22.853Z,99257.31
2018-02-22T15:21:54.407Z,99261.50
2018-02-22T15:24:25.608Z,99262.63
2018-02-22T15:26:57.336Z,99255.13
2018-02-22T15:29:28.121Z,99261.88
2018-02-22T15:31:59.358Z,99264.05
2018-02-22T15:34:31.097Z,99261.63
2018-02-22T15:37:01.989Z,99264.61
2018-02-22T15:39:32.824Z,99267.52
2018-02-22T15:42:03.725Z,99255.14
2018-02-22T15:44:35.277Z,99261.48
2018-02-22T15:47:07.642Z,99271.59
2018-02-22T15:49:38.518Z,99262.72
2018-02-22T15:52:10.236Z,99265.35
2018-02-22T15:54:41.106Z,99272.42
2018-02-22T15:57:12.069Z,99265.56
2018-02-22T15:59:44.587Z,99272.45
2018-02-22T16:02:16.610Z,99260.95
2018-02-22T16:04:47.701Z,99266.17
2018-02-22T16:07:19.328Z,99267.84
2018-02-22T16:09:50.241Z,99257.62
2018-02-22T16:12:21.381Z,99255.75
2018-02-22T16:14:53.091Z,99260.20
2018-02-22T16:17:24.167Z,99258.99
2018-02-22T16:19:55.313Z,99252.12
2018-02-22T16:22:26.195Z,99251.90
2018-02-22T16:24:57.008Z,99260.92
2018-02-22T16:27:28.222Z,99259.98
2018-02-22T16:29:58.997Z,99258.57
2018-02-22T16:32:29.974Z,99259.45
2018-02-22T16:35:00.897Z,99252.75
2018-02-22T16:37:31.781Z,99256.06
2018-02-22T16:40:03.426Z,99256.53
2018-02-22T16:42:34.241Z,99251.38
2018-02-22T16:45:05.952Z,99255.42
2018-02-22T16:47:37.065Z,99257.78
2018-02-22T16:50:07.910Z,99257.98
2018-02-22T16:52:39.294Z,99257.66
2018-02-22T16:55:11.038Z,99254.58
2018-02-22T16:57:41.917Z,99264.52
2018-02-22T17:00:13.117Z,99250.84
2018-02-22T17:02:44.001Z,99264.23
2018-02-22T17:05:15.245Z,99257.02
2018-02-22T17:07:46.349Z,99258.39
2018-02-22T17:10:17.211Z,99265.46
2018-02-22T17:12:48.062Z,99255.28
2018-02-22T17:15:19.294Z,99254.92
2018-02-22T17:17:50.696Z,99258.11
2018-02-22T17:20:22.597Z,99261.78
2018-02-22T17:22:53.718Z,99268.87
2018-02-22T17:25:23.218Z,99263.40
2018-02-22T17:27:59.122Z,99270.20
2018-02-22T17:30:34.561Z,99263.44
2018-02-22T17:33:05.961Z,99269.17
2018-02-22T17:35:40.606Z,99273.91
2018-02-22T17:38:11.853Z,99272.64
2018-02-22T17:40:43.294Z,99272.39
2018-02-22T17:43:14.529Z,99276.41
2018-02-22T17:45:45.565Z,99275.81
2018-02-22T17:48:18.066Z,99272.81
2018-02-22T17:50:49.052Z,99276.59
2018-02-22T17:53:19.976Z,99277.55
2018-02-22T17:55:51.734Z,99284.75
2018-02-22T17:58:23.544Z,99279.37
2018-02-22T18:00:55.126Z,99277.50
2018-02-22T18:03:27.701Z,99282.98
2018-02-22T18:05:58.762Z,99279.45
2018-02-22T18:08:30.377Z,99282.16
2018-02-22T18:11:01.368Z,99283.30
2018-02-22T18:13:32.249Z,99285.19
2018-02-22T18:16:03.605Z,99292.75
2018-02-22T18:18:34.793Z,99293.94
2018-02-22T18:21:05.733Z,99296.58
2018-02-22T18:23:36.799Z,99307.14
2018-02-22T18:26:07.722Z,99303.98
2018-02-22T18:28:38.729Z,99300.37
2018-02-22T18:31:10.056Z,99302.95
2018-02-22T18:33:41.013Z,99305.38
2018-02-22T18:36:13.414Z,99308.77
2018-02-22T18:38:48.239Z,99311.97
2018-02-22T18:41:19.046Z,99302.84
2018-02-22T18:43:54.310Z,99309.58
2018-02-22T18:46:27.369Z,99309.09
2018-02-22T18:48:59.624Z,99310.66
2018-02-22T18:51:30.469Z,99310.40
2018-02-22T18:54:01.388Z,99311.09
2018-02-22T18:56:35.515Z,99306.62
2018-02-22T18:59:06.389Z,99308.06
2018-02-22T19:01:37.508Z,99298.74
2018-02-22T19:04:08.448Z,99299.35
2018-02-22T19:06:39.336Z,99300.52
2018-02-22T19:09:10.191Z,99298.95
2018-02-22T19:11:41.085Z,99308.27
2018-02-22T19:14:12.697Z,99302.47
2018-02-22T19:16:44.261Z,99305.98
2018-02-22T19:19:15.099Z,99310.67
2018-02-22T19:21:46.177Z,99311.51
2018-02-22T19:24:17.005Z,99309.88
2018-02-22T19:26:47.914Z,99303.16
2018-02-22T19:29:19.386Z,99307.98
2018-02-22T19:31:50.298Z,99313.95
2018-02-22T19:34:21.187Z,99312.35
2018-02-22T19:36:52.326Z,99317.47
2018-02-22T19:39:23.137Z,99313.22
2018-02-22T19:41:54.029Z,99317.26
2018-02-22T19:44:25.135Z,99312.73
2018-02-22T19:46:55.961Z,99320.19
2018-02-22T19:49:26.843Z,99314.77
2018-02-22T19:51:58.264Z,99310.03
2018-02-22T19:54:29.885Z,99317.50
2018-02-22T19:57:01.034Z,99317.16
2018-02-22T19:59:31.896Z,99316.85
2018-02-22T20:02:02.780Z,99321.17
2018-02-22T20:04:34.646Z,99318.34
2018-02-22T20:07:05.454Z,99327.48
2018-02-22T20:09:36.173Z,99317.81
2018-02-22T20:12:07.237Z,99324.55
